createdAt,value
2019-01-30T00:00:46.366Z,15.73
2019-01-30T00:05:42.257Z,19.70
2019-01-30T00:10:38.186Z,19.33
2019-01-30T00:15:34.075Z,17.23
2019-01-30T00:20:30.148Z,18.03
2019-01-30T00:25:26.142Z,17.97
2019-01-30T00:30:24.239Z,22.40
2019-01-30T00:35:20.226Z,19.37
2019-01-30T00:40:18.513Z,16.57
2019-01-30T00:45:19.565Z,21.40
2019-01-30T00:50:18.502Z,11.80
2019-01-30T00:55:14.594Z,16.33
2019-01-30T01:00:32.254Z,11.60
2019-01-30T01:05:28.145Z,18.23
2019-01-30T01:10:24.263Z,18.20
2019-01-30T01:15:20.153Z,15.23
2019-01-30T01:20:40.653Z,12.10
2019-01-30T01:25:36.594Z,16.50
2019-01-30T01:30:32.458Z,19.53
2019-01-30T01:35:28.471Z,11.60
2019-01-30T01:40:24.636Z,13.63
2019-01-30T01:45:24.116Z,13.23
2019-01-30T01:50:21.007Z,19.03
2019-01-30T01:55:16.899Z,16.43
2019-01-30T02:00:15.697Z,13.33
2019-01-30T02:05:14.089Z,13.00
2019-01-30T02:10:13.218Z,10.40
2019-01-30T02:15:12.214Z,11.40
2019-01-30T02:20:16.506Z,11.20
2019-01-30T02:25:12.509Z,15.70
2019-01-30T02:30:11.904Z,11.30
2019-01-30T02:35:07.904Z,9.87
2019-01-30T02:40:07.102Z,9.63
2019-01-30T02:45:06.011Z,11.20
2019-01-30T02:50:05.011Z,10.17
2019-01-30T02:55:00.909Z,7.03
2019-01-30T02:59:56.802Z,9.80
2019-01-30T03:04:52.701Z,7.97
2019-01-30T03:09:48.643Z,10.67
2019-01-30T03:14:44.560Z,17.03
2019-01-30T03:19:40.416Z,13.77
2019-01-30T03:24:37.063Z,11.40
2019-01-30T03:29:32.914Z,9.43
2019-01-30T03:34:28.806Z,11.57
2019-01-30T03:39:24.743Z,13.37
2019-01-30T03:44:20.626Z,10.83
2019-01-30T03:49:16.514Z,13.43
2019-01-30T03:54:13.227Z,12.23
2019-01-30T03:59:09.075Z,12.50
2019-01-30T04:04:04.962Z,11.80
2019-01-30T04:09:00.853Z,11.80
2019-01-30T04:13:56.765Z,10.70
2019-01-30T04:18:52.673Z,16.73
2019-01-30T04:23:52.379Z,9.60
2019-01-30T04:28:48.368Z,11.70
2019-01-30T04:33:44.271Z,12.07
2019-01-30T04:38:40.135Z,10.80
2019-01-30T04:43:36.082Z,13.80
2019-01-30T04:48:31.969Z,13.50
2019-01-30T04:53:29.295Z,7.60
2019-01-30T04:58:25.386Z,8.63
2019-01-30T05:03:21.286Z,12.00
2019-01-30T05:08:17.166Z,13.73
2019-01-30T05:13:13.157Z,14.30
2019-01-30T05:18:09.051Z,14.73
2019-01-30T05:23:04.937Z,21.30
2019-01-30T05:28:00.934Z,16.20
2019-01-30T05:32:56.822Z,15.13
2019-01-30T05:37:52.906Z,19.83
2019-01-30T05:42:48.901Z,16.37
2019-01-30T05:47:44.896Z,11.03
2019-01-30T05:52:40.997Z,18.17
2019-01-30T05:57:36.895Z,10.03
2019-01-30T06:02:32.790Z,12.10
2019-01-30T06:07:28.677Z,11.83
2019-01-30T06:12:24.575Z,11.33
2019-01-30T06:17:20.462Z,12.27
2019-01-30T06:22:16.351Z,28.73
2019-01-30T06:27:12.342Z,11.27
2019-01-30T06:32:08.235Z,17.33
2019-01-30T06:37:04.130Z,16.37
2019-01-30T06:42:00.022Z,12.10
2019-01-30T06:46:56.023Z,9.20
2019-01-30T06:51:51.915Z,7.20
2019-01-30T06:56:47.829Z,9.10
2019-01-30T07:01:43.704Z,8.43
2019-01-30T07:06:39.592Z,13.93
2019-01-30T07:11:35.480Z,10.77
2019-01-30T07:16:31.376Z,8.00
2019-01-30T07:21:27.266Z,7.13
2019-01-30T07:26:23.263Z,5.93
2019-01-30T07:31:19.392Z,7.10
2019-01-30T07:36:15.249Z,7.20
2019-01-30T07:41:11.143Z,5.07
2019-01-30T07:46:07.033Z,10.10
2019-01-30T07:51:03.041Z,6.60
2019-01-30T07:55:59.086Z,8.70
2019-01-30T08:00:54.977Z,5.80
2019-01-30T08:05:50.955Z,9.80
2019-01-30T08:10:46.990Z,9.90
2019-01-30T08:15:42.878Z,12.20
2019-01-30T08:20:38.875Z,8.33
2019-01-30T08:25:34.766Z,10.07
2019-01-30T08:30:30.871Z,8.50
2019-01-30T08:35:28.456Z,12.03
2019-01-30T08:40:24.341Z,12.40
2019-01-30T08:45:25.383Z,6.70
2019-01-30T08:50:21.381Z,8.37
2019-01-30T08:55:17.266Z,6.90
2019-01-30T09:05:42.229Z,7.10
2019-01-30T09:10:38.157Z,13.40
2019-01-30T09:15:34.040Z,9.40
2019-01-30T09:20:29.936Z,7.70
2019-01-30T09:25:27.930Z,7.63
2019-01-30T09:30:26.323Z,5.27
2019-01-30T09:35:22.441Z,14.30
2019-01-30T09:40:20.116Z,11.93
2019-01-30T09:45:17.395Z,5.33
2019-01-30T09:50:17.644Z,9.60
2019-01-30T09:55:18.876Z,6.27
2019-01-30T10:00:29.896Z,9.37
2019-01-30T10:05:25.886Z,7.23
2019-01-30T10:10:28.030Z,5.67
2019-01-30T10:15:45.702Z,8.50
2019-01-30T10:20:44.096Z,8.13
2019-01-30T10:25:39.993Z,10.70
2019-01-30T10:30:38.584Z,8.83
2019-01-30T10:35:34.775Z,9.50
2019-01-30T10:40:30.660Z,8.03
2019-01-30T10:45:26.728Z,9.10
2019-01-30T10:50:24.648Z,9.83
2019-01-30T10:55:25.405Z,12.73
2019-01-30T11:00:24.412Z,10.40
2019-01-30T11:05:20.507Z,7.80
2019-01-30T11:10:18.230Z,6.43
2019-01-30T11:15:16.641Z,7.73
2019-01-30T11:20:17.855Z,10.57
2019-01-30T11:25:25.422Z,8.10
2019-01-30T11:30:21.318Z,8.97
2019-01-30T11:35:17.310Z,5.27
2019-01-30T11:40:20.567Z,11.57
2019-01-30T11:45:26.071Z,6.60
2019-01-30T11:50:22.056Z,8.40
2019-01-30T11:55:18.254Z,10.70
2019-01-30T12:00:43.533Z,8.50
2019-01-30T12:05:39.830Z,10.83
2019-01-30T12:10:35.845Z,6.87
2019-01-30T12:15:31.739Z,13.30
2019-01-30T12:20:27.625Z,9.70
2019-01-30T12:25:23.526Z,10.30
2019-01-30T12:30:26.988Z,10.07
2019-01-30T12:35:22.982Z,11.20
2019-01-30T12:40:21.509Z,12.40
2019-01-30T12:45:20.703Z,12.93
2019-01-30T12:50:16.695Z,13.97
2019-01-30T12:55:12.853Z,17.07
2019-01-30T13:00:20.924Z,13.67
2019-01-30T13:05:17.620Z,17.93
2019-01-30T13:10:13.639Z,14.20
2019-01-30T13:15:12.135Z,10.70
2019-01-30T13:20:11.845Z,17.30
2019-01-30T13:25:10.761Z,15.63
2019-01-30T13:30:33.045Z,11.10
2019-01-30T13:35:29.965Z,13.03
2019-01-30T13:40:32.171Z,11.50
2019-01-30T13:45:29.882Z,21.47
2019-01-30T13:50:29.250Z,14.80
2019-01-30T13:55:25.439Z,9.33
2019-01-30T14:00:33.709Z,11.13
2019-01-30T14:05:29.858Z,9.23
2019-01-30T14:10:28.351Z,11.13
2019-01-30T14:15:26.686Z,10.97
2019-01-30T14:20:22.662Z,8.83
2019-01-30T14:25:18.658Z,8.70
2019-01-30T14:30:26.231Z,12.03
2019-01-30T14:35:23.635Z,12.20
2019-01-30T14:40:20.428Z,9.43
2019-01-30T14:45:18.185Z,14.53
2019-01-30T14:50:17.067Z,12.23
2019-01-30T14:55:13.678Z,10.63
2019-01-30T15:00:23.932Z,9.10
2019-01-30T15:05:22.528Z,8.23
2019-01-30T15:10:22.551Z,13.87
2019-01-30T15:15:21.762Z,14.80
2019-01-30T15:20:24.344Z,11.10
2019-01-30T15:25:21.992Z,15.13
2019-01-30T15:30:21.709Z,14.77
2019-01-30T15:35:17.811Z,14.93
2019-01-30T15:40:19.886Z,14.30
2019-01-30T15:45:18.288Z,10.83
2019-01-30T15:50:38.855Z,19.43
2019-01-30T15:55:34.995Z,21.40
2019-01-30T16:00:37.397Z,15.20
2019-01-30T16:05:44.096Z,13.37
2019-01-30T16:10:32.431Z,14.43
2019-01-30T16:15:34.710Z,17.53
2019-01-30T16:20:30.597Z,18.43
2019-01-30T16:25:26.600Z,19.67
2019-01-30T16:30:23.780Z,15.30
2019-01-30T16:35:55.768Z,15.03
2019-01-30T16:40:46.537Z,15.13
2019-01-30T16:45:42.641Z,15.23
2019-01-30T16:50:38.545Z,14.37
2019-01-30T16:55:37.905Z,14.30
2019-01-30T17:00:35.888Z,13.77
2019-01-30T17:05:31.983Z,14.10
2019-01-30T17:10:27.997Z,9.77
2019-01-30T17:15:30.154Z,15.70
2019-01-30T17:20:32.263Z,14.37
2019-01-30T17:25:28.461Z,20.30
2019-01-30T17:30:48.742Z,9.93
2019-01-30T17:35:44.765Z,18.30
2019-01-30T17:40:40.859Z,14.33
2019-01-30T17:45:36.754Z,17.50
2019-01-30T17:50:32.655Z,14.70
2019-01-30T17:55:28.558Z,15.43
2019-01-30T18:00:32.222Z,22.90
2019-01-30T18:05:28.122Z,16.67
2019-01-30T18:10:24.143Z,16.63
2019-01-30T18:15:20.046Z,18.97
2019-01-30T18:20:20.016Z,27.93
2019-01-30T18:25:16.715Z,18.63
2019-01-30T18:30:15.723Z,19.17
2019-01-30T18:35:12.328Z,22.37
2019-01-30T18:40:12.047Z,16.70
2019-01-30T18:45:11.640Z,16.30
2019-01-30T18:50:14.085Z,18.40
2019-01-30T18:55:11.100Z,18.23
2019-01-30T19:00:13.608Z,17.93
2019-01-30T19:05:12.126Z,28.67
2019-01-30T19:10:11.451Z,25.03
2019-01-30T19:15:14.462Z,28.03
2019-01-30T19:20:13.835Z,32.63
2019-01-30T19:25:09.825Z,21.20
2019-01-30T19:30:09.532Z,16.27
2019-01-30T19:35:06.927Z,30.27
2019-01-30T19:40:06.235Z,22.60
2019-01-30T19:45:05.901Z,26.27
2019-01-30T19:50:04.574Z,27.73
2019-01-30T19:55:06.882Z,45.37
2019-01-30T20:00:27.100Z,43.10
2019-01-30T20:05:28.816Z,44.80
2019-01-30T20:10:27.622Z,47.77
2019-01-30T20:15:25.049Z,56.43
2019-01-30T20:20:21.365Z,51.20
2019-01-30T20:25:26.684Z,56.70
2019-01-30T20:36:21.210Z,37.67
2019-01-30T20:41:17.101Z,43.20
2019-01-30T20:46:12.973Z,51.73
2019-01-30T20:51:08.852Z,40.70
2019-01-30T20:56:04.857Z,44.73
2019-01-30T21:01:00.849Z,49.50
2019-01-30T21:05:56.750Z,40.33
2019-01-30T21:10:53.425Z,51.03
2019-01-30T21:15:55.032Z,51.67
2019-01-30T21:20:53.612Z,45.30
2019-01-30T21:25:53.256Z,53.00
2019-01-30T21:30:49.892Z,44.33
2019-01-30T21:35:46.576Z,49.83
2019-01-30T21:40:43.729Z,49.90
2019-01-30T21:45:40.572Z,54.90
2019-01-30T21:50:38.799Z,51.20
2019-01-30T21:55:36.049Z,48.30
2019-01-30T22:00:32.878Z,56.43
2019-01-30T22:05:30.254Z,46.63
2019-01-30T22:10:28.347Z,57.93
2019-01-30T22:15:25.052Z,59.23
2019-01-30T22:20:26.899Z,49.77
2019-01-30T22:25:26.091Z,62.77
2019-01-30T22:30:28.917Z,56.83
2019-01-30T22:35:25.556Z,50.30
2019-01-30T22:40:22.877Z,52.97
2019-01-30T22:45:20.525Z,52.97
2019-01-30T22:50:18.421Z,58.40
2019-01-30T22:55:21.050Z,48.93
2019-01-30T23:00:38.135Z,51.90
2019-01-30T23:05:48.047Z,46.53
2019-01-30T23:10:48.846Z,56.70
2019-01-30T23:16:12.184Z,52.83
2019-01-30T23:21:13.134Z,53.27
2019-01-30T23:26:13.508Z,53.73
2019-01-30T23:31:25.739Z,48.63
2019-01-30T23:37:05.273Z,56.97
2019-01-30T23:42:08.499Z,47.37
2019-01-30T23:47:20.796Z,53.40
2019-01-30T23:52:26.963Z,59.10
2019-01-30T23:57:42.366Z,52.13
